Time;durP1;ratioP1;P1;durP2;ratioP2;P2;SDS_P1;SDS_P2;PMS_P1;PMS_P2;Temp;Humidity;BMP_temperature;BMP_pressure;BME280_temperature;BME280_humidity;BME280_pressure;Samples;Min_cycle;Max_cycle;Signal;HPM_P1;HPM_P2
2023/08/11 08:47:55;;;;;;;5.80;3.53;;;;;;;21.16;100.00;101742.50;5070353;27;20413;-66
2023/08/11 08:50:21;;;;;;;7.20;3.88;;;;;;;21.33;100.00;101744.16;5070265;28;20067;-66
2023/08/11 08:52:47;;;;;;;8.23;3.30;;;;;;;21.35;100.00;101737.28;5069954;28;20071;-67
2023/08/11 08:55:12;;;;;;;7.10;3.30;;;;;;;21.43;100.00;101735.91;5069988;28;20411;-67
2023/08/11 08:57:39;;;;;;;8.05;3.22;;;;;;;21.66;100.00;101734.50;5068765;28;20406;-67
2023/08/11 09:00:05;;;;;;;10.02;3.22;;;;;;;21.75;100.00;101734.75;5064684;28;20055;-68
2023/08/11 09:02:31;;;;;;;5.35;2.97;;;;;;;21.88;100.00;101738.88;5034547;28;20045;-68
2023/08/11 09:04:56;;;;;;;5.10;2.95;;;;;;;21.91;100.00;101733.63;5027177;28;20029;-68
2023/08/11 09:07:22;;;;;;;6.57;3.00;;;;;;;22.03;96.13;101741.59;5029790;28;20084;-68
2023/08/11 09:09:47;;;;;;;6.57;3.20;;;;;;;22.09;97.77;101734.94;5028691;28;20026;-67
2023/08/11 09:12:13;;;;;;;6.13;3.28;;;;;;;22.12;99.80;101739.88;5026193;28;20040;-68
2023/08/11 09:14:38;;;;;;;5.35;2.60;;;;;;;22.18;100.00;101742.63;5027710;28;20021;-67
2023/08/11 09:17:05;;;;;;;5.75;2.83;;;;;;;22.29;98.98;101739.53;5029560;28;20061;-70
2023/08/11 09:19:30;;;;;;;6.35;2.97;;;;;;;22.36;93.75;101736.53;5027204;28;20341;-67
2023/08/11 09:21:56;;;;;;;4.45;2.70;;;;;;;22.45;98.05;101732.06;5028688;28;20037;-68
2023/08/11 09:24:23;;;;;;;5.85;2.83;;;;;;;22.51;92.31;101738.38;5028184;28;20029;-68
2023/08/11 09:26:51;;;;;;;6.70;3.10;;;;;;;22.63;86.71;101738.00;5029135;28;20477;-68
2023/08/11 09:29:18;;;;;;;3.15;2.60;;;;;;;22.73;88.12;101734.38;5028037;28;20449;-68
2023/08/11 09:31:48;;;;;;;4.88;2.80;;;;;;;22.86;95.29;101732.91;5029146;28;20033;-68
2023/08/11 09:34:17;;;;;;;3.83;2.75;;;;;;;23.01;89.89;101732.81;5026707;28;20026;-68
2023/08/11 09:36:44;;;;;;;8.13;2.88;;;;;;;22.99;89.37;101723.97;5027956;28;20060;-66
2023/08/11 09:39:13;;;;;;;6.20;3.15;;;;;;;23.07;93.36;101725.28;5029254;28;20030;-67
2023/08/11 09:41:41;;;;;;;6.40;2.97;;;;;;;23.01;83.46;101725.34;5028960;28;20075;-67
2023/08/11 09:44:07;;;;;;;5.00;2.70;;;;;;;23.03;82.43;101727.81;5029136;28;20037;-67
2023/08/11 09:46:36;;;;;;;2.97;2.47;;;;;;;23.11;84.85;101720.88;5008282;28;20369;-67
2023/08/11 09:49:01;;;;;;;4.10;2.50;;;;;;;23.17;92.48;101730.75;5009374;28;20029;-68
2023/08/11 09:51:28;;;;;;;6.13;3.00;;;;;;;23.20;85.58;101723.84;5009080;28;20109;-67
2023/08/11 09:53:54;;;;;;;7.55;3.05;;;;;;;23.31;80.96;101726.22;5026044;28;20415;-67
2023/08/11 09:56:22;;;;;;;4.82;2.65;;;;;;;23.37;83.20;101727.00;5026665;28;20045;-67
2023/08/11 09:58:50;;;;;;;3.55;2.50;;;;;;;23.41;81.88;101725.28;5017455;28;20412;-67
2023/08/11 10:01:17;;;;;;;2.95;2.42;;;;;;;23.49;76.47;101723.84;5012407;28;20034;-67
2023/08/11 10:03:45;;;;;;;5.30;2.58;;;;;;;23.56;77.43;101718.81;5013059;28;20080;-67
2023/08/11 10:06:15;;;;;;;3.47;2.42;;;;;;;23.59;79.42;101728.44;5015459;28;20076;-67
2023/08/11 10:08:42;;;;;;;7.38;2.40;;;;;;;23.60;76.49;101730.09;5015611;28;20037;-67
2023/08/11 10:11:08;;;;;;;4.78;2.50;;;;;;;23.70;80.74;101735.50;5015446;28;20037;-68
2023/08/11 10:13:34;;;;;;;5.95;2.35;;;;;;;23.71;73.65;101728.88;5014984;28;20030;-67
2023/08/11 10:16:00;;;;;;;4.65;2.30;;;;;;;23.81;84.76;101734.28;5013091;28;20116;-67
2023/08/11 10:18:25;;;;;;;6.03;2.30;;;;;;;23.93;74.57;101727.53;5015284;28;20569;-67
2023/08/11 10:20:52;;;;;;;5.15;2.50;;;;;;;23.84;74.31;101725.41;5015154;28;20033;-67
2023/08/11 10:23:18;;;;;;;8.18;2.28;;;;;;;24.02;76.00;101723.00;5012758;28;20032;-67
2023/08/11 10:25:45;;;;;;;3.67;2.00;;;;;;;24.06;69.16;101729.59;5014640;28;20642;-67
2023/08/11 10:28:12;;;;;;;5.50;1.92;;;;;;;24.08;68.24;101724.63;5015204;28;20057;-67
2023/08/11 10:30:38;;;;;;;4.22;1.90;;;;;;;24.13;69.83;101724.53;5013592;28;20045;-67
2023/08/11 10:33:04;;;;;;;5.88;2.05;;;;;;;24.24;67.48;101723.28;5015124;28;20365;-67
2023/08/11 10:35:35;;;;;;;6.63;2.00;;;;;;;24.33;67.49;101722.63;5014591;28;20518;-69
2023/08/11 10:38:04;;;;;;;3.33;2.00;;;;;;;24.31;68.88;101727.66;5014242;28;20145;-68
2023/08/11 10:40:38;;;;;;;2.90;1.95;;;;;;;24.43;69.41;101730.78;5014056;28;20032;-67
2023/08/11 10:43:04;;;;;;;4.13;2.05;;;;;;;24.37;69.42;101715.41;5012739;28;20061;-67
2023/08/11 10:45:34;;;;;;;4.32;1.92;;;;;;;24.53;70.46;101716.81;5014120;28;20038;-67
2023/08/11 10:48:06;;;;;;;5.83;2.30;;;;;;;24.54;66.67;101718.44;5014795;28;20038;-67
2023/08/11 10:50:32;;;;;;;4.32;1.60;;;;;;;24.60;64.54;101722.00;5014522;28;20025;-67
2023/08/11 10:53:22;;;;;;;4.65;2.17;;;;;;;24.80;67.34;101720.06;5013943;28;20377;-67
2023/08/11 10:56:01;;;;;;;5.60;2.10;;;;;;;24.85;66.61;101728.25;5012222;28;20033;-68
2023/08/11 10:58:30;;;;;;;3.80;2.20;;;;;;;24.87;65.46;101721.31;5011170;28;20100;-68
2023/08/11 11:00:56;;;;;;;2.45;1.92;;;;;;;24.94;65.40;101716.22;5009421;28;20045;-68
2023/08/11 11:03:22;;;;;;;4.47;1.88;;;;;;;25.06;68.07;101717.69;5014218;28;20105;-69
2023/08/11 11:05:48;;;;;;;2.38;1.80;;;;;;;25.12;63.23;101711.78;5014833;28;20479;-67
2023/08/11 11:08:13;;;;;;;8.60;2.10;;;;;;;25.09;63.02;101714.31;5014337;28;20033;-68
2023/08/11 11:10:41;;;;;;;3.17;2.30;;;;;;;25.21;67.13;101711.06;5008214;28;20033;-68
2023/08/11 11:13:07;;;;;;;3.08;1.90;;;;;;;25.26;62.37;101713.75;5012704;28;20029;-69
2023/08/11 11:15:33;;;;;;;5.53;2.05;;;;;;;25.31;62.48;101722.00;5012935;28;20029;-68
2023/08/11 11:17:59;;;;;;;4.22;2.30;;;;;;;25.39;65.29;101714.94;5013909;28;20105;-68
2023/08/11 11:20:25;;;;;;;4.45;2.08;;;;;;;25.50;66.16;101713.63;5013273;28;20116;-69
2023/08/11 11:22:51;;;;;;;4.30;2.03;;;;;;;25.53;62.98;101721.34;5011884;28;20040;-69
2023/08/11 11:25:18;;;;;;;3.50;2.10;;;;;;;25.55;62.83;101719.06;5012325;28;20026;-69
2023/08/11 11:27:43;;;;;;;4.38;2.00;;;;;;;25.57;60.86;101714.03;5013301;28;20029;-69
2023/08/11 11:30:10;;;;;;;3.72;2.13;;;;;;;25.61;63.06;101714.25;5013415;28;20036;-69
2023/08/11 11:32:36;;;;;;;3.88;2.00;;;;;;;25.61;61.31;101717.84;5013431;28;20033;-68
2023/08/11 11:35:04;;;;;;;3.80;1.98;;;;;;;25.67;62.55;101723.31;5011428;28;20030;-68
2023/08/11 11:37:29;;;;;;;5.13;2.30;;;;;;;25.68;61.78;101719.38;5009329;28;20076;-68
2023/08/11 11:39:55;;;;;;;4.10;1.92;;;;;;;25.80;64.60;101715.00;5013296;28;20413;-71
2023/08/11 11:42:21;;;;;;;3.95;2.17;;;;;;;25.90;62.18;101711.19;5011620;28;20081;-71
2023/08/11 11:44:46;;;;;;;5.38;2.10;;;;;;;25.91;60.45;101698.97;5012932;28;20069;-68
2023/08/11 11:47:12;;;;;;;4.18;2.13;;;;;;;25.96;62.75;101700.81;5026183;28;20076;-68
2023/08/11 11:49:37;;;;;;;3.60;2.10;;;;;;;26.11;63.94;101699.69;5012820;28;20368;-68
2023/08/11 11:52:05;;;;;;;3.78;1.95;;;;;;;26.16;61.89;101705.97;5012921;28;20046;-67
2023/08/11 11:54:31;;;;;;;6.88;2.33;;;;;;;26.12;59.16;101699.38;5012246;28;20028;-68
2023/08/11 11:56:57;;;;;;;2.92;1.90;;;;;;;26.14;60.05;101696.31;5013193;28;20026;-69
2023/08/11 11:59:22;;;;;;;4.22;2.03;;;;;;;26.18;59.92;101697.34;5013236;28;20116;-67
2023/08/11 12:01:47;;;;;;;4.43;2.20;;;;;;;26.28;59.44;101707.38;5009290;28;20041;-69
2023/08/11 12:04:13;;;;;;;3.10;2.20;;;;;;;26.46;58.95;101705.59;5011375;28;20424;-69
2023/08/11 12:06:38;;;;;;;5.68;2.13;;;;;;;26.46;58.47;101698.06;5011837;28;20033;-69
2023/08/11 12:09:10;;;;;;;4.95;2.00;;;;;;;26.55;59.80;101716.78;5013354;28;20026;-68
2023/08/11 12:11:38;;;;;;;6.47;2.15;;;;;;;26.57;58.67;101703.41;5003668;28;20026;-68
2023/08/11 12:14:05;;;;;;;3.40;2.05;;;;;;;26.61;58.07;101709.97;5000236;28;20408;-71
2023/08/11 12:16:31;;;;;;;4.57;2.10;;;;;;;26.60;56.15;101700.84;5007494;28;20029;-69
2023/08/11 12:19:00;;;;;;;4.00;2.15;;;;;;;26.67;57.25;101698.44;4991947;28;20030;-70
2023/08/11 12:21:27;;;;;;;3.88;2.00;;;;;;;26.75;58.17;101687.72;4999386;28;20026;-75
2023/08/11 12:23:53;;;;;;;7.38;2.05;;;;;;;26.75;57.22;101693.28;5009678;28;20029;-70
2023/08/11 12:26:21;;;;;;;5.32;2.08;;;;;;;26.85;57.82;101693.03;5012799;28;20105;-69
2023/08/11 12:28:46;;;;;;;3.08;2.13;;;;;;;26.86;56.02;101689.13;5004251;28;20026;-69
2023/08/11 12:31:12;;;;;;;5.93;2.00;;;;;;;26.93;56.81;101681.16;5011883;28;20113;-70
2023/08/11 12:33:39;;;;;;;5.32;2.00;;;;;;;27.12;57.46;101691.25;5007872;28;20026;-69
2023/08/11 12:36:05;;;;;;;5.75;2.00;;;;;;;27.21;60.44;101684.59;5009582;28;20471;-69
2023/08/11 12:38:31;;;;;;;2.55;2.03;;;;;;;27.22;56.67;101686.25;5010562;28;20018;-70
2023/08/11 12:40:57;;;;;;;6.05;2.30;;;;;;;27.33;58.12;101686.84;5008927;28;20412;-70
2023/08/11 12:43:22;;;;;;;6.63;2.17;;;;;;;27.33;56.43;101691.56;5009719;28;20579;-68
2023/08/11 12:45:48;;;;;;;3.90;2.20;;;;;;;27.25;56.04;101676.44;5011559;28;20038;-69
2023/08/11 12:48:14;;;;;;;4.70;2.15;;;;;;;27.30;56.31;101681.88;5010722;28;20108;-70
2023/08/11 12:50:40;;;;;;;2.67;2.00;;;;;;;27.32;56.14;101674.06;5009299;28;20033;-69
2023/08/11 12:53:06;;;;;;;9.85;2.20;;;;;;;27.36;56.31;101679.81;5010504;28;20468;-71
2023/08/11 12:55:33;;;;;;;4.88;2.00;;;;;;;27.46;57.73;101675.94;5010971;28;20034;-70
2023/08/11 12:58:01;;;;;;;3.80;2.05;;;;;;;27.44;56.65;101681.81;5011562;28;20026;-71
2023/08/11 13:00:26;;;;;;;4.82;2.50;;;;;;;27.33;55.64;101680.47;5011547;28;20108;-69
2023/08/11 13:02:56;;;;;;;6.55;2.38;;;;;;;27.30;57.38;101675.50;5010590;28;20145;-69
2023/08/11 13:05:22;;;;;;;5.40;2.35;;;;;;;27.31;57.60;101672.41;5010894;28;20368;-70
2023/08/11 13:07:47;;;;;;;4.13;1.98;;;;;;;27.22;55.42;101675.16;5011425;28;20026;-69
2023/08/11 13:10:13;;;;;;;3.92;1.98;;;;;;;27.24;57.89;101672.84;5012403;28;20026;-68
2023/08/11 13:12:42;;;;;;;2.65;2.05;;;;;;;27.22;56.89;101679.84;5010194;28;20473;-68
2023/08/11 13:15:08;;;;;;;3.03;2.10;;;;;;;27.26;56.84;101678.09;5011280;28;20026;-68
2023/08/11 13:17:34;;;;;;;6.78;2.15;;;;;;;27.31;57.67;101677.13;5005755;28;20110;-68
2023/08/11 13:20:06;;;;;;;3.55;2.38;;;;;;;27.30;56.17;101669.97;5011001;28;20105;-70
2023/08/11 13:22:32;;;;;;;4.47;1.95;;;;;;;27.37;56.29;101678.66;5012538;28;20025;-69
2023/08/11 13:24:58;;;;;;;6.45;2.17;;;;;;;27.36;56.04;101674.28;5011076;28;20114;-73
2023/08/11 13:27:23;;;;;;;4.35;2.25;;;;;;;27.33;56.44;101670.16;5012177;28;20073;-71
2023/08/11 13:29:48;;;;;;;4.32;2.10;;;;;;;27.33;58.06;101669.34;5012271;28;20351;-69
2023/08/11 13:32:14;;;;;;;7.88;2.35;;;;;;;27.36;57.37;101672.28;5011969;28;20029;-71
2023/08/11 13:34:39;;;;;;;4.07;2.35;;;;;;;27.44;56.68;101679.03;5001734;28;20518;-69
2023/08/11 13:37:04;;;;;;;3.40;2.20;;;;;;;27.50;56.09;101674.97;5016083;28;20022;-69
2023/08/11 13:39:30;;;;;;;2.22;2.03;;;;;;;27.41;55.93;101677.69;5015892;28;20026;-70
2023/08/11 13:41:55;;;;;;;3.22;2.30;;;;;;;27.34;56.26;101671.81;5011676;28;20030;-69
2023/08/11 13:44:20;;;;;;;5.20;2.42;;;;;;;27.33;56.78;101661.00;5013460;28;20498;-69
2023/08/11 13:46:46;;;;;;;5.78;2.20;;;;;;;27.32;57.24;101662.09;5014716;28;20080;-69
2023/08/11 13:49:12;;;;;;;3.30;2.25;;;;;;;27.27;55.97;101663.06;5015935;28;20036;-70
2023/08/11 13:51:37;;;;;;;4.35;2.40;;;;;;;27.24;56.93;101660.94;5016130;28;20033;-69
2023/08/11 13:54:04;;;;;;;4.38;2.17;;;;;;;27.20;58.50;101665.47;5015575;28;20026;-69
2023/08/11 13:56:30;;;;;;;5.97;2.33;;;;;;;27.15;58.01;101658.09;5014628;28;20346;-71
2023/08/11 13:58:55;;;;;;;3.90;2.15;;;;;;;27.12;58.45;101655.16;5015786;28;20032;-69
2023/08/11 14:01:21;;;;;;;2.47;2.20;;;;;;;27.16;58.04;101653.34;5006146;28;20042;-67
2023/08/11 14:03:47;;;;;;;4.32;2.17;;;;;;;27.18;58.22;101645.53;5015516;28;20026;-69
2023/08/11 14:06:12;;;;;;;6.18;2.30;;;;;;;27.22;58.31;101650.13;5014898;28;20036;-70
2023/08/11 14:08:38;;;;;;;5.95;2.03;;;;;;;27.27;58.15;101649.19;5015191;28;20105;-70
2023/08/11 14:11:03;;;;;;;4.85;2.63;;;;;;;27.34;57.19;101648.75;5013975;28;20028;-69
2023/08/11 14:13:28;;;;;;;5.65;2.20;;;;;;;27.39;57.25;101643.88;5015501;28;20057;-69
2023/08/11 14:15:56;;;;;;;3.35;2.20;;;;;;;27.46;58.28;101645.34;5013959;28;20026;-69
2023/08/11 14:18:21;;;;;;;5.70;2.35;;;;;;;27.45;57.41;101649.28;5006422;28;20469;-69
2023/08/11 14:20:47;;;;;;;4.13;2.20;;;;;;;27.39;56.82;101649.41;4995196;28;20057;-69
2023/08/11 14:23:12;;;;;;;4.20;2.15;;;;;;;27.38;58.39;101656.09;4995407;28;20030;-69
2023/08/11 14:25:37;;;;;;;3.53;2.40;;;;;;;27.28;57.60;101656.38;4997621;28;20462;-70
2023/08/11 14:28:03;;;;;;;2.92;2.42;;;;;;;27.24;57.17;101650.63;5014667;28;20357;-70
2023/08/11 14:30:28;;;;;;;3.67;2.05;;;;;;;27.17;59.22;101653.03;5015147;28;20025;-75
2023/08/11 14:32:54;;;;;;;5.43;2.40;;;;;;;27.14;58.39;101658.41;5011179;28;20407;-70
2023/08/11 14:35:19;;;;;;;5.45;2.20;;;;;;;27.06;61.86;101660.81;4995537;28;20026;-73
2023/08/11 14:37:44;;;;;;;5.63;2.45;;;;;;;27.01;60.61;101647.09;5010236;28;20059;-72
2023/08/11 14:40:10;;;;;;;4.00;2.28;;;;;;;27.01;60.64;101646.25;4995441;28;20026;-72
2023/08/11 14:42:36;;;;;;;7.25;2.25;;;;;;;26.96;60.86;101644.41;5021368;28;20026;-72
2023/08/11 14:45:01;;;;;;;5.55;2.42;;;;;;;26.92;61.09;101649.00;5012353;28;20392;-71
2023/08/11 14:47:27;;;;;;;3.97;2.55;;;;;;;26.88;62.73;101653.53;5011842;28;20049;-70
2023/08/11 14:49:52;;;;;;;4.28;2.38;;;;;;;26.86;63.33;101651.06;5009921;28;20033;-75
2023/08/11 14:52:18;;;;;;;3.35;2.30;;;;;;;26.89;62.57;101649.63;5011534;28;20065;-73
2023/08/11 14:54:43;;;;;;;4.88;2.50;;;;;;;26.83;60.94;101646.16;5014213;28;20030;-72
2023/08/11 14:57:12;;;;;;;5.68;2.13;;;;;;;26.87;62.55;101647.16;5013887;28;20048;-74
2023/08/11 14:59:38;;;;;;;4.38;2.25;;;;;;;26.88;63.31;101646.00;5013547;28;20377;-73
2023/08/11 15:02:03;;;;;;;2.28;2.08;;;;;;;27.05;63.64;101645.31;5006231;28;20065;-72
2023/08/11 15:04:29;;;;;;;3.47;2.40;;;;;;;27.21;61.36;101642.13;5014278;28;20018;-74
2023/08/11 15:06:54;;;;;;;5.07;2.67;;;;;;;27.27;61.72;101642.81;5026364;28;20037;-75
2023/08/11 15:09:20;;;;;;;4.68;2.50;;;;;;;27.47;60.56;101641.44;5012240;28;20104;-75
2023/08/11 15:11:45;;;;;;;3.65;2.40;;;;;;;27.92;59.57;101639.28;5013599;28;20052;-73
2023/08/11 15:14:10;;;;;;;5.75;2.60;;;;;;;28.13;58.98;101627.56;5013143;28;20610;-72
2023/08/11 15:16:35;;;;;;;5.90;2.70;;;;;;;28.16;58.82;101634.41;5013530;28;20072;-73
2023/08/11 15:19:01;;;;;;;5.33;2.47;;;;;;;28.26;60.02;101626.59;5013619;28;20084;-73
2023/08/11 15:21:26;;;;;;;5.75;2.42;;;;;;;28.46;58.06;101633.47;5014202;28;20267;-72
2023/08/11 15:23:51;;;;;;;2.20;1.98;;;;;;;28.53;55.76;101626.56;5013609;28;20014;-73
2023/08/11 15:26:18;;;;;;;7.00;2.20;;;;;;;28.38;56.85;101620.34;5014143;28;20026;-73
2023/08/11 15:28:43;;;;;;;6.20;2.25;;;;;;;28.16;59.78;101628.84;5008296;28;20470;-77
2023/08/11 15:31:08;;;;;;;4.78;2.40;;;;;;;27.89;58.45;101630.78;4994255;28;20049;-75
2023/08/11 15:33:34;;;;;;;7.28;2.42;;;;;;;27.69;61.56;101630.22;4997347;28;20064;-73
2023/08/11 15:35:59;;;;;;;6.00;2.28;;;;;;;27.71;60.96;101629.91;5028669;28;20022;-74
2023/08/11 15:38:27;;;;;;;2.35;2.03;;;;;;;27.89;62.62;101617.69;5013969;28;20037;-72
2023/08/11 15:40:52;;;;;;;9.85;2.50;;;;;;;28.24;59.70;101619.72;5017910;28;20055;-75
2023/08/11 15:43:17;;;;;;;10.10;4.05;;;;;;;28.21;63.47;101614.78;5022001;28;20416;-72
2023/08/11 15:45:43;;;;;;;12.80;4.47;;;;;;;28.03;67.70;101619.53;5002766;28;20095;-73
2023/08/11 15:48:08;;;;;;;10.43;3.95;;;;;;;27.81;72.74;101612.09;5013496;28;20518;-73
2023/08/11 15:50:33;;;;;;;7.97;4.45;;;;;;;27.73;76.15;101617.34;5011678;28;20502;-73
2023/08/11 15:52:59;;;;;;;11.02;4.13;;;;;;;27.94;72.58;101608.34;5013161;28;20022;-72
2023/08/11 15:55:24;;;;;;;14.05;4.22;;;;;;;28.19;71.17;101605.97;5012836;28;20152;-79
2023/08/11 15:57:49;;;;;;;11.25;4.40;;;;;;;28.49;68.01;101603.31;5011014;28;20079;-76
2023/08/11 16:00:15;;;;;;;11.45;4.43;;;;;;;28.53;65.93;101604.28;5010203;28;20038;-72
2023/08/11 16:02:40;;;;;;;9.23;4.43;;;;;;;28.26;67.23;101600.72;5022125;28;20169;-73
